createdAt,value
2017-11-08T00:00:44.356Z,7.18
2017-11-08T00:01:44.875Z,7.18
2017-11-08T00:02:44.669Z,7.08
2017-11-08T00:03:44.330Z,7.18
2017-11-08T00:04:44.322Z,7.21
2017-11-08T00:05:44.640Z,7.14
2017-11-08T00:06:44.620Z,7.21
2017-11-08T00:07:44.614Z,7.14
2017-11-08T00:08:43.956Z,7.11
2017-11-08T00:09:43.946Z,7.11
2017-11-08T00:10:43.942Z,7.07
2017-11-08T00:11:44.250Z,7.05
2017-11-08T00:12:44.569Z,7.11
2017-11-08T00:13:43.910Z,6.96
2017-11-08T00:14:43.903Z,7.01
2017-11-08T00:15:44.217Z,6.96
2017-11-08T00:16:43.881Z,6.96
2017-11-08T00:17:43.874Z,6.96
2017-11-08T00:18:44.517Z,6.95
2017-11-08T00:19:44.177Z,6.92
2017-11-08T00:20:44.492Z,6.92
2017-11-08T00:21:44.157Z,6.92
2017-11-08T00:22:43.826Z,6.92
2017-11-08T00:23:44.140Z,6.87
2017-11-08T00:24:43.804Z,6.89
2017-11-08T00:25:44.454Z,6.93
2017-11-08T00:26:44.441Z,6.86
2017-11-08T00:27:44.102Z,6.8
2017-11-08T00:28:44.410Z,6.82
2017-11-08T00:29:44.080Z,6.78
2017-11-08T00:30:44.078Z,6.83
2017-11-08T00:31:44.063Z,6.86
2017-11-08T00:32:43.832Z,6.96
2017-11-08T00:33:44.046Z,6.85
2017-11-08T00:34:44.360Z,6.93
2017-11-08T00:35:43.703Z,6.95
2017-11-08T00:36:44.014Z,6.92
2017-11-08T00:37:44.002Z,6.96
2017-11-08T00:38:43.994Z,6.89
2017-11-08T00:39:43.663Z,7.01
2017-11-08T00:40:43.973Z,6.9
2017-11-08T00:41:43.969Z,6.95
2017-11-08T00:42:44.284Z,6.86
2017-11-08T00:43:43.632Z,6.89
2017-11-08T00:44:43.937Z,7
2017-11-08T00:45:43.927Z,6.96
2017-11-08T00:46:44.021Z,6.97
2017-11-08T00:47:44.229Z,6.96
2017-11-08T00:48:43.901Z,6.95
2017-11-08T00:49:43.894Z,6.97
2017-11-08T00:50:43.881Z,6.95
2017-11-08T00:51:43.879Z,6.87
2017-11-08T00:52:43.863Z,6.92
2017-11-08T00:53:44.174Z,6.89
2017-11-08T00:54:43.847Z,6.9
2017-11-08T00:55:44.158Z,6.96
2017-11-08T00:56:43.502Z,6.96
2017-11-08T00:57:43.494Z,6.83
2017-11-08T00:58:43.486Z,6.83
2017-11-08T00:59:43.795Z,6.85
2017-11-08T01:00:44.114Z,6.95
2017-11-08T01:01:43.778Z,6.85
2017-11-08T01:02:43.802Z,6.92
2017-11-08T01:03:43.761Z,6.95
2017-11-08T01:04:43.427Z,6.93
2017-11-08T01:05:43.743Z,6.89
2017-11-08T01:06:43.410Z,6.95
2017-11-08T01:07:43.398Z,7
2017-11-08T01:08:43.385Z,6.95
2017-11-08T01:09:43.702Z,6.92
2017-11-08T01:10:43.369Z,6.96
2017-11-08T01:11:44.007Z,6.92
2017-11-08T01:12:43.680Z,6.95
2017-11-08T01:13:43.342Z,6.87
2017-11-08T01:14:43.331Z,6.9
2017-11-08T01:15:43.322Z,6.86
2017-11-08T01:17:43.304Z,6.86
2017-11-08T01:18:43.945Z,6.93
2017-11-08T01:19:43.933Z,6.92
2017-11-08T01:20:43.695Z,6.92
2017-11-08T01:21:43.911Z,6.87
2017-11-08T01:22:43.255Z,6.95
2017-11-08T01:23:43.568Z,6.87
2017-11-08T01:24:43.237Z,6.82
2017-11-08T01:25:43.557Z,6.82
2017-11-08T01:26:43.539Z,6.74
2017-11-08T01:27:43.852Z,6.78
2017-11-08T01:28:43.198Z,6.75
2017-11-08T01:29:43.853Z,6.78
2017-11-08T01:30:43.181Z,6.75
2017-11-08T01:31:43.169Z,6.75
2017-11-08T01:32:43.259Z,6.74
2017-11-08T01:33:43.151Z,6.7
2017-11-08T01:34:43.462Z,6.72
2017-11-08T01:35:43.131Z,6.72
2017-11-08T01:36:43.224Z,6.72
2017-11-08T01:37:43.762Z,6.71
2017-11-08T01:38:43.428Z,6.72
2017-11-08T01:39:43.414Z,6.7
2017-11-08T01:40:43.410Z,6.68
2017-11-08T01:41:43.174Z,6.74
2017-11-08T01:42:43.392Z,6.72
2017-11-08T01:43:43.054Z,6.71
2017-11-08T01:44:43.364Z,6.78
2017-11-08T01:45:43.364Z,6.74
2017-11-08T01:46:43.353Z,6.72
2017-11-08T01:47:43.391Z,6.75
2017-11-08T01:48:43.017Z,6.82
2017-11-08T01:49:43.319Z,6.8
2017-11-08T01:50:43.738Z,6.75
2017-11-08T01:51:43.402Z,6.71
2017-11-08T01:52:43.615Z,6.78
2017-11-08T01:53:43.286Z,6.75
2017-11-08T01:54:43.272Z,6.77
2017-11-08T01:55:42.945Z,6.72
2017-11-08T01:56:42.931Z,6.82
2017-11-08T01:57:43.246Z,6.75
2017-11-08T01:58:42.915Z,6.77
2017-11-08T01:59:43.227Z,6.77
2017-11-08T02:00:43.215Z,6.77
2017-11-08T02:01:43.528Z,6.75
2017-11-08T02:02:42.875Z,6.77
2017-11-08T02:03:43.543Z,6.85
2017-11-08T02:04:42.858Z,6.82
2017-11-08T02:05:43.496Z,6.85
2017-11-08T02:06:43.166Z,6.71
2017-11-08T02:07:43.151Z,6.71
2017-11-08T02:08:42.820Z,6.68
2017-11-08T02:09:43.129Z,6.71
2017-11-08T02:10:43.442Z,6.7
2017-11-08T02:11:43.107Z,6.71
2017-11-08T02:12:43.107Z,6.72
2017-11-08T02:13:43.092Z,6.72
2017-11-08T02:14:43.408Z,6.78
2017-11-08T02:15:43.081Z,6.77
2017-11-08T02:16:42.738Z,6.82
2017-11-08T02:17:43.388Z,6.82
2017-11-08T02:18:42.742Z,6.86
2017-11-08T02:19:42.715Z,6.96
2017-11-08T02:20:42.703Z,6.92
2017-11-08T02:21:43.022Z,6.92
2017-11-08T02:22:43.326Z,7
2017-11-08T02:23:42.996Z,6.92
2017-11-08T02:24:43.313Z,6.89
2017-11-08T02:25:42.654Z,6.92
2017-11-08T02:26:42.969Z,6.93
2017-11-08T02:27:42.961Z,6.92
2017-11-08T02:28:42.627Z,6.89
2017-11-08T02:29:43.266Z,6.92
2017-11-08T02:30:42.945Z,6.92
2017-11-08T02:31:42.598Z,6.97
2017-11-08T02:32:42.913Z,6.89
2017-11-08T02:33:43.002Z,6.87
2017-11-08T02:34:42.893Z,6.93
2017-11-08T02:35:43.204Z,6.95
2017-11-08T02:36:43.194Z,6.95
2017-11-08T02:37:42.539Z,7
2017-11-08T02:38:42.853Z,6.96
2017-11-08T02:39:42.523Z,7
2017-11-08T02:40:42.835Z,6.97
2017-11-08T02:41:42.828Z,6.95
2017-11-08T02:42:42.493Z,7.03
2017-11-08T02:43:42.804Z,7.07
2017-11-08T02:44:42.476Z,7.04
2017-11-08T02:45:42.789Z,7.05
2017-11-08T02:46:42.454Z,7.05
2017-11-08T02:47:43.087Z,7.03
2017-11-08T02:48:43.081Z,7.04
2017-11-08T02:49:42.426Z,7.01
2017-11-08T02:50:42.738Z,7.01
2017-11-08T02:51:42.744Z,7.04
2017-11-08T02:52:42.732Z,7
2017-11-08T02:53:42.713Z,7.1
2017-11-08T02:54:42.805Z,7.07
2017-11-08T02:55:42.696Z,7.13
2017-11-08T02:56:42.360Z,7.04
2017-11-08T02:57:42.355Z,7.01
2017-11-08T02:58:42.662Z,6.95
2017-11-08T02:59:42.992Z,7
2017-11-08T03:00:42.651Z,6.96
2017-11-08T03:01:42.312Z,6.96
2017-11-08T03:02:42.629Z,6.97
2017-11-08T03:03:42.950Z,6.89
2017-11-08T03:04:42.286Z,7
2017-11-08T03:05:42.600Z,6.86
2017-11-08T03:06:42.588Z,6.97
2017-11-08T03:07:42.905Z,6.9
2017-11-08T03:08:42.888Z,6.9
2017-11-08T03:09:42.558Z,6.82
2017-11-08T03:10:42.975Z,6.9
2017-11-08T03:11:42.879Z,6.82
2017-11-08T03:12:42.856Z,6.83
2017-11-08T03:13:42.200Z,6.85
2017-11-08T03:14:42.828Z,6.92
2017-11-08T03:15:42.829Z,6.83
2017-11-08T03:16:42.501Z,6.8
2017-11-08T03:17:42.489Z,6.85
2017-11-08T03:18:42.482Z,6.93
2017-11-08T03:19:42.467Z,6.83
2017-11-08T03:20:42.132Z,6.75
2017-11-08T03:21:42.124Z,6.83
2017-11-08T03:22:42.434Z,6.83
2017-11-08T03:23:42.752Z,6.74
2017-11-08T03:24:42.093Z,6.71
2017-11-08T03:25:42.414Z,6.75
2017-11-08T03:26:42.400Z,6.75
2017-11-08T03:27:42.064Z,6.77
2017-11-08T03:28:42.481Z,6.78
2017-11-08T03:29:42.372Z,6.74
2017-11-08T03:30:42.390Z,6.74
2017-11-08T03:31:42.351Z,6.78
2017-11-08T03:32:42.774Z,6.8
2017-11-08T03:33:42.011Z,6.83
2017-11-08T03:34:42.325Z,6.77
2017-11-08T03:35:42.745Z,6.78
2017-11-08T03:36:41.981Z,6.86
2017-11-08T03:37:42.294Z,6.74
2017-11-08T03:38:42.293Z,6.82
2017-11-08T03:39:42.482Z,6.87
2017-11-08T03:40:42.265Z,6.83
2017-11-08T03:41:42.252Z,6.77
2017-11-08T03:42:42.032Z,6.75
2017-11-08T03:43:42.253Z,6.71
2017-11-08T03:44:42.230Z,6.77
2017-11-08T03:45:42.215Z,6.82
2017-11-08T03:46:42.208Z,6.77
2017-11-08T03:47:42.526Z,6.82
2017-11-08T03:48:42.518Z,6.78
2017-11-08T03:49:42.511Z,6.82
2017-11-08T03:50:42.172Z,6.71
2017-11-08T03:51:41.838Z,6.8
2017-11-08T03:52:42.149Z,6.82
2017-11-08T03:53:42.149Z,6.71
2017-11-08T03:54:42.134Z,6.7
2017-11-08T03:55:41.802Z,6.7
2017-11-08T03:56:41.790Z,6.7
2017-11-08T03:57:42.106Z,6.7
2017-11-08T03:58:41.872Z,6.74
2017-11-08T03:59:41.863Z,6.68
2017-11-08T04:00:42.405Z,6.7
2017-11-08T04:01:42.399Z,6.71
2017-11-08T04:02:42.380Z,6.7
2017-11-08T04:03:42.373Z,6.68
2017-11-08T04:04:42.354Z,6.7
2017-11-08T04:05:42.026Z,6.65
2017-11-08T04:06:42.026Z,6.62
2017-11-08T04:07:42.107Z,6.65
2017-11-08T04:08:41.677Z,6.67
2017-11-08T04:09:42.092Z,6.6
2017-11-08T04:10:42.091Z,6.6
2017-11-08T04:11:41.647Z,6.6
2017-11-08T04:12:41.643Z,6.6
2017-11-08T04:13:41.957Z,6.62
2017-11-08T04:14:42.263Z,6.54
2017-11-08T04:15:41.931Z,6.47
2017-11-08T04:16:41.924Z,6.57
2017-11-08T04:17:41.591Z,6.59
2017-11-08T04:18:41.905Z,6.52
2017-11-08T04:19:42.002Z,6.57
2017-11-08T04:20:42.218Z,6.47
2017-11-08T04:21:41.888Z,6.49
2017-11-08T04:22:41.864Z,6.47
2017-11-08T04:23:41.955Z,6.47
2017-11-08T04:24:41.845Z,6.54
2017-11-08T04:25:41.511Z,6.5
2017-11-08T04:26:41.506Z,6.47
2017-11-08T04:27:41.493Z,6.52
2017-11-08T04:28:41.586Z,6.59
2017-11-08T04:29:41.801Z,6.59
2017-11-08T04:30:42.114Z,6.52
2017-11-08T04:31:41.778Z,6.53
2017-11-08T04:32:42.096Z,6.47
2017-11-08T04:33:41.758Z,6.52
2017-11-08T04:34:41.756Z,6.47
2017-11-08T04:35:41.743Z,6.41
2017-11-08T04:36:41.409Z,6.54
2017-11-08T04:37:41.719Z,6.35
2017-11-08T04:38:41.489Z,6.36
2017-11-08T04:39:42.029Z,6.49
2017-11-08T04:40:41.697Z,6.41
2017-11-08T04:41:41.684Z,6.46
2017-11-08T04:42:41.675Z,6.5
2017-11-08T04:43:42.088Z,6.52
2017-11-08T04:44:41.978Z,6.52
2017-11-08T04:45:41.643Z,6.5
2017-11-08T04:46:41.315Z,6.43
2017-11-08T04:47:41.947Z,6.54
2017-11-08T04:48:41.295Z,6.52
2017-11-08T04:49:41.616Z,6.5
2017-11-08T04:50:41.922Z,6.39
2017-11-08T04:51:41.594Z,6.36
2017-11-08T04:52:41.255Z,6.39
2017-11-08T04:53:41.671Z,6.43
2017-11-08T04:54:41.559Z,6.36
2017-11-08T04:55:41.225Z,6.38
2017-11-08T04:56:41.860Z,6.39
2017-11-08T04:57:41.531Z,6.39
2017-11-08T04:58:41.196Z,6.5
2017-11-08T04:59:41.509Z,6.35
2017-11-08T05:00:41.183Z,6.46
2017-11-08T05:01:41.817Z,6.38
2017-11-08T05:02:41.859Z,6.44
2017-11-08T05:03:41.474Z,6.41
2017-11-08T05:04:41.246Z,6.44
2017-11-08T05:05:41.129Z,6.39
2017-11-08T05:06:41.443Z,6.39
2017-11-08T05:07:41.437Z,6.41
2017-11-08T05:08:41.104Z,6.34
2017-11-08T05:09:41.093Z,6.35
2017-11-08T05:10:41.081Z,6.41
2017-11-08T05:11:41.405Z,6.38
2017-11-08T05:12:41.062Z,6.39
2017-11-08T05:13:41.064Z,6.39
2017-11-08T05:14:41.370Z,6.38
2017-11-08T05:15:41.358Z,6.34
2017-11-08T05:16:41.345Z,6.35
2017-11-08T05:17:41.114Z,6.39
2017-11-08T05:18:41.007Z,6.38
2017-11-08T05:19:41.318Z,6.38
2017-11-08T05:20:40.984Z,6.46
2017-11-08T05:21:41.617Z,6.47
2017-11-08T05:22:41.622Z,6.53
2017-11-08T05:23:41.282Z,6.49
2017-11-08T05:24:40.947Z,6.44
2017-11-08T05:25:41.587Z,6.38
2017-11-08T05:26:41.248Z,6.41
2017-11-08T05:27:41.242Z,6.41
2017-11-08T05:28:41.229Z,6.46
2017-11-08T05:29:40.997Z,6.47
2017-11-08T05:30:41.534Z,6.41
2017-11-08T05:31:41.202Z,6.44
2017-11-08T05:32:41.514Z,6.46
2017-11-08T05:33:41.185Z,6.5
2017-11-08T05:34:41.172Z,6.39
2017-11-08T05:35:40.840Z,6.41
2017-11-08T05:36:41.151Z,6.39
2017-11-08T05:37:41.147Z,6.44
2017-11-08T05:38:41.133Z,6.38
2017-11-08T05:39:41.125Z,6.41
2017-11-08T05:40:41.116Z,6.36
2017-11-08T05:41:40.785Z,6.36
2017-11-08T05:42:41.101Z,6.38
2017-11-08T05:43:41.093Z,6.38
2017-11-08T05:44:41.407Z,6.39
2017-11-08T05:45:40.742Z,6.39
2017-11-08T05:46:41.058Z,6.36
2017-11-08T05:47:41.055Z,6.43
2017-11-08T05:48:40.715Z,6.43
2017-11-08T05:49:41.029Z,6.38
2017-11-08T05:50:40.695Z,6.36
2017-11-08T05:51:41.005Z,6.34
2017-11-08T05:52:40.679Z,6.29
2017-11-08T05:53:40.991Z,6.38
2017-11-08T05:54:40.982Z,6.34
2017-11-08T05:55:40.973Z,6.38
2017-11-08T05:56:40.966Z,6.41
2017-11-08T05:57:40.954Z,6.41
2017-11-08T05:58:40.939Z,6.31
2017-11-08T05:59:40.928Z,6.38
2017-11-08T06:00:41.242Z,6.32
2017-11-08T06:01:41.233Z,6.39
2017-11-08T06:02:41.335Z,6.32
2017-11-08T06:03:41.222Z,6.38
2017-11-08T06:04:40.565Z,6.39
2017-11-08T06:05:40.552Z,6.38
2017-11-08T06:06:41.200Z,6.39
2017-11-08T06:07:41.186Z,6.44
2017-11-08T06:08:41.167Z,6.35
2017-11-08T06:09:40.845Z,6.39
2017-11-08T06:10:41.152Z,6.34
2017-11-08T06:11:40.817Z,6.34
2017-11-08T06:12:40.484Z,6.25
2017-11-08T06:13:40.471Z,6.34
2017-11-08T06:14:40.888Z,6.25
2017-11-08T06:15:40.457Z,6.31
2017-11-08T06:16:40.443Z,6.32
2017-11-08T06:17:40.859Z,6.36
2017-11-08T06:18:40.424Z,6.39
2017-11-08T06:19:40.739Z,6.31
2017-11-08T06:20:40.734Z,6.35
2017-11-08T06:21:40.397Z,6.36
2017-11-08T06:22:40.707Z,6.41
2017-11-08T06:23:40.480Z,6.32
2017-11-08T06:24:41.020Z,6.32
2017-11-08T06:25:40.463Z,6.39
2017-11-08T06:26:40.670Z,6.34
2017-11-08T06:27:40.659Z,6.31
2017-11-08T06:28:40.650Z,6.41
2017-11-08T06:29:40.644Z,6.38
2017-11-08T06:30:40.955Z,6.41
2017-11-08T06:31:40.623Z,6.43
2017-11-08T06:32:40.614Z,6.39
2017-11-08T06:33:40.603Z,6.35
2017-11-08T06:34:40.592Z,6.49
2017-11-08T06:35:40.259Z,6.47
2017-11-08T06:36:40.902Z,6.47
2017-11-08T06:37:40.580Z,6.44
2017-11-08T06:38:40.555Z,6.39
2017-11-08T06:39:40.549Z,6.38
2017-11-08T06:40:40.219Z,6.39
2017-11-08T06:41:40.201Z,6.32
2017-11-08T06:42:40.524Z,6.39
2017-11-08T06:43:40.513Z,6.39
2017-11-08T06:44:40.498Z,6.39
2017-11-08T06:45:40.488Z,6.38
2017-11-08T06:46:40.155Z,6.43
2017-11-08T06:47:40.143Z,6.38
2017-11-08T06:48:40.454Z,6.49
2017-11-08T06:49:40.127Z,6.36
2017-11-08T06:50:40.444Z,6.46
2017-11-08T06:51:40.432Z,6.46
2017-11-08T06:52:40.419Z,6.5
2017-11-08T06:53:40.415Z,6.36
2017-11-08T06:54:40.075Z,6.52
2017-11-08T06:55:40.066Z,6.47
2017-11-08T06:56:40.057Z,6.52
2017-11-08T06:57:40.694Z,6.47
2017-11-08T06:58:40.366Z,6.41
2017-11-08T06:59:40.453Z,6.43
2017-11-08T07:00:40.019Z,6.49
2017-11-08T07:01:40.434Z,6.53
2017-11-08T07:02:39.998Z,6.54
2017-11-08T07:03:40.312Z,6.44
2017-11-08T07:04:39.982Z,6.46
2017-11-08T07:05:40.294Z,6.54
2017-11-08T07:06:40.383Z,6.5
2017-11-08T07:07:40.147Z,6.54
2017-11-08T07:08:40.591Z,6.53
2017-11-08T07:09:39.930Z,6.54
2017-11-08T07:10:40.584Z,6.54
2017-11-08T07:11:40.564Z,6.52
2017-11-08T07:12:39.902Z,6.49
2017-11-08T07:13:40.547Z,6.47
2017-11-08T07:14:39.882Z,6.49
2017-11-08T07:15:39.875Z,6.56
2017-11-08T07:16:39.862Z,6.54
2017-11-08T07:17:40.277Z,6.52
2017-11-08T07:18:40.505Z,6.5
2017-11-08T07:19:40.485Z,6.59
2017-11-08T07:20:39.832Z,6.53
2017-11-08T07:21:40.137Z,6.49
2017-11-08T07:22:40.154Z,6.5
2017-11-08T07:23:40.116Z,6.46
2017-11-08T07:24:39.788Z,6.47
2017-11-08T07:25:39.778Z,6.53
2017-11-08T07:26:40.415Z,6.52
2017-11-08T07:27:40.079Z,6.52
2017-11-08T07:28:39.745Z,6.64
2017-11-08T07:29:40.389Z,6.56
2017-11-08T07:30:40.051Z,6.65
2017-11-08T07:31:39.715Z,6.62
2017-11-08T07:32:40.356Z,6.62
2017-11-08T07:33:40.019Z,6.6
2017-11-08T07:34:39.788Z,6.64
2017-11-08T07:35:40.014Z,6.67
2017-11-08T07:36:40.000Z,6.62
2017-11-08T07:37:40.308Z,6.65
2017-11-08T07:38:39.652Z,6.6
2017-11-08T07:39:39.640Z,6.49
2017-11-08T07:40:39.628Z,6.62
2017-11-08T07:41:39.979Z,6.52
2017-11-08T07:42:39.608Z,6.56
2017-11-08T07:43:39.601Z,6.54
2017-11-08T07:44:39.595Z,6.52
2017-11-08T07:45:40.229Z,6.49
2017-11-08T07:46:39.896Z,6.47
2017-11-08T07:47:40.264Z,6.57
2017-11-08T07:48:39.555Z,6.64
2017-11-08T07:49:39.869Z,6.67
2017-11-08T07:50:39.532Z,6.65
2017-11-08T07:51:39.526Z,6.7
2017-11-08T07:52:40.158Z,6.62
2017-11-08T07:53:39.868Z,6.68
2017-11-08T07:54:39.820Z,6.71
2017-11-08T07:55:39.810Z,6.67
2017-11-08T07:56:39.477Z,6.75
2017-11-08T07:57:39.466Z,6.68
2017-11-08T07:58:39.456Z,6.74
2017-11-08T07:59:40.098Z,6.72
2017-11-08T08:00:39.439Z,6.65
2017-11-08T08:01:39.428Z,6.71
2017-11-08T08:02:39.747Z,6.71
2017-11-08T08:03:39.732Z,6.71
2017-11-08T08:04:39.725Z,6.72
2017-11-08T08:05:39.744Z,6.67
2017-11-08T08:06:40.026Z,6.75
2017-11-08T08:07:39.694Z,6.65
2017-11-08T08:08:39.361Z,6.72
2017-11-08T08:09:40.112Z,6.7
2017-11-08T08:10:39.664Z,6.72
2017-11-08T08:11:39.657Z,6.7
2017-11-08T08:12:39.322Z,6.64
2017-11-08T08:13:39.635Z,6.7
2017-11-08T08:14:39.304Z,6.7
2017-11-08T08:15:39.617Z,6.7
2017-11-08T08:16:39.928Z,6.74
2017-11-08T08:17:39.601Z,6.75
2017-11-08T08:18:39.265Z,6.75
2017-11-08T08:19:39.898Z,6.71
2017-11-08T08:20:39.899Z,6.7
2017-11-08T08:21:39.558Z,6.7
2017-11-08T08:22:40.071Z,6.68
2017-11-08T08:23:39.641Z,6.75
2017-11-08T08:24:39.527Z,6.74
2017-11-08T08:25:39.526Z,6.68
2017-11-08T08:26:39.189Z,6.75
2017-11-08T08:27:39.823Z,6.68
2017-11-08T08:28:39.498Z,6.77
2017-11-08T08:29:39.484Z,6.77
2017-11-08T08:30:39.470Z,6.8
2017-11-08T08:31:39.459Z,6.77
2017-11-08T08:32:39.129Z,6.8
2017-11-08T08:33:39.439Z,6.75
2017-11-08T08:34:39.438Z,6.8
2017-11-08T08:35:39.746Z,6.8
2017-11-08T08:36:39.413Z,6.8
2017-11-08T08:37:39.402Z,6.83
2017-11-08T08:38:39.725Z,6.77
2017-11-08T08:39:39.390Z,6.78
2017-11-08T08:40:39.062Z,6.77
2017-11-08T08:41:39.364Z,6.78
2017-11-08T08:42:39.787Z,6.71
2017-11-08T08:43:39.025Z,6.7
2017-11-08T08:44:39.660Z,6.71
2017-11-08T08:45:39.007Z,6.71
2017-11-08T08:46:39.643Z,6.65
2017-11-08T08:47:39.308Z,6.75
2017-11-08T08:48:39.625Z,6.8
2017-11-08T08:49:38.968Z,6.71
2017-11-08T08:50:39.610Z,6.77
2017-11-08T08:51:39.273Z,6.75
2017-11-08T08:52:38.937Z,6.83
2017-11-08T08:53:39.574Z,6.82
2017-11-08T08:54:38.917Z,6.85
2017-11-08T08:55:39.232Z,6.87
2017-11-08T08:56:39.235Z,6.83
2017-11-08T08:57:39.537Z,6.96
2017-11-08T08:58:39.218Z,6.9
2017-11-08T08:59:39.195Z,6.93
2017-11-08T09:00:39.190Z,6.89
2017-11-08T09:01:39.181Z,6.92
2017-11-08T09:02:38.843Z,6.89
2017-11-08T09:03:38.838Z,6.97
2017-11-08T09:04:39.473Z,6.9
2017-11-08T09:05:39.131Z,6.89
2017-11-08T09:06:39.447Z,6.87
2017-11-08T09:07:39.440Z,6.95
2017-11-08T09:08:39.107Z,6.89
2017-11-08T09:09:39.421Z,6.87
2017-11-08T09:10:38.764Z,6.96
2017-11-08T09:11:39.276Z,6.96
2017-11-08T09:12:39.066Z,6.96
2017-11-08T09:13:38.739Z,6.93
2017-11-08T09:14:38.726Z,7
2017-11-08T09:15:39.040Z,6.97
2017-11-08T09:16:38.708Z,6.97
2017-11-08T09:17:38.696Z,7.01
2017-11-08T09:18:38.689Z,6.93
2017-11-08T09:19:38.780Z,6.95
2017-11-08T09:20:38.994Z,6.95
2017-11-08T09:21:39.321Z,6.97
2017-11-08T09:22:39.291Z,6.96
2017-11-08T09:23:38.966Z,7.01
2017-11-08T09:24:39.055Z,7.05
2017-11-08T09:25:38.622Z,6.97
2017-11-08T09:26:39.259Z,6.92
2017-11-08T09:27:39.246Z,6.95
2017-11-08T09:28:38.920Z,6.96
2017-11-08T09:29:38.584Z,7.08
2017-11-08T09:30:39.321Z,6.96
2017-11-08T09:31:38.889Z,6.96
2017-11-08T09:32:38.552Z,7.05
2017-11-08T09:33:38.870Z,7.1
2017-11-08T09:34:39.180Z,7.08
2017-11-08T09:35:39.180Z,7.11
2017-11-08T09:36:38.848Z,7.14
2017-11-08T09:37:38.831Z,7.15
2017-11-08T09:38:38.821Z,7.14
2017-11-08T09:39:38.489Z,7.07
2017-11-08T09:40:38.798Z,7.08
2017-11-08T09:41:38.799Z,7.15
2017-11-08T09:42:38.459Z,7.08
2017-11-08T09:43:38.454Z,7.1
2017-11-08T09:44:38.441Z,7.14
2017-11-08T09:45:38.429Z,7.18
2017-11-08T09:46:38.746Z,7.25
2017-11-08T09:47:38.753Z,7.22
2017-11-08T09:48:38.725Z,7.13
2017-11-08T09:49:38.719Z,7.13
2017-11-08T09:50:38.716Z,7.13
2017-11-08T09:51:39.016Z,7.21
2017-11-08T09:52:38.690Z,7.22
2017-11-08T09:53:38.680Z,7.22
2017-11-08T09:54:38.683Z,7.28
2017-11-08T09:55:38.336Z,7.29
2017-11-08T09:56:38.974Z,7.28
2017-11-08T09:57:38.638Z,7.23
2017-11-08T09:58:38.959Z,7.23
2017-11-08T09:59:38.969Z,7.28
2017-11-08T10:00:38.290Z,7.15
2017-11-08T10:01:38.599Z,7.21
2017-11-08T10:02:38.596Z,7.13
2017-11-08T10:03:38.582Z,7.15
2017-11-08T10:04:38.934Z,7.22
2017-11-08T10:05:38.891Z,7.1
2017-11-08T10:06:38.568Z,7.25
2017-11-08T10:07:38.583Z,7.25
2017-11-08T10:08:38.605Z,7.28
2017-11-08T10:09:38.898Z,7.15
2017-11-08T10:10:38.908Z,7.26
2017-11-08T10:11:38.540Z,7.21
2017-11-08T10:12:38.863Z,7.25
2017-11-08T10:13:38.486Z,7.31
2017-11-08T10:14:38.188Z,7.26
2017-11-08T10:15:38.145Z,7.31
2017-11-08T10:16:38.458Z,7.31
2017-11-08T10:17:38.136Z,7.26
2017-11-08T10:18:38.118Z,7.32
2017-11-08T10:19:38.535Z,7.32
2017-11-08T10:20:38.097Z,7.36
2017-11-08T10:21:38.418Z,7.37
2017-11-08T10:22:38.737Z,7.33
2017-11-08T10:23:38.391Z,7.36
2017-11-08T10:24:38.708Z,7.4
2017-11-08T10:25:38.373Z,7.25
2017-11-08T10:26:38.361Z,7.33
2017-11-08T10:27:38.683Z,7.37
2017-11-08T10:28:38.023Z,7.29
2017-11-08T10:29:38.345Z,7.37
2017-11-08T10:30:38.328Z,7.43
2017-11-08T10:31:38.328Z,7.43
2017-11-08T10:32:38.305Z,7.37
2017-11-08T10:33:38.298Z,7.37
2017-11-08T10:34:38.286Z,7.28
2017-11-08T10:35:37.955Z,7.28
2017-11-08T10:36:38.268Z,7.25
2017-11-08T10:37:38.581Z,7.31
2017-11-08T10:38:38.272Z,7.36
2017-11-08T10:39:38.245Z,7.47
2017-11-08T10:40:38.231Z,7.44
2017-11-08T10:41:38.564Z,7.47
2017-11-08T10:42:38.507Z,7.5
2017-11-08T10:43:38.272Z,7.58
2017-11-08T10:44:38.486Z,7.62
2017-11-08T10:45:38.158Z,7.56
2017-11-08T10:46:38.137Z,7.53
2017-11-08T10:47:38.132Z,7.61
2017-11-08T10:48:38.125Z,7.56
2017-11-08T10:49:38.108Z,7.56
2017-11-08T10:50:38.430Z,7.44
2017-11-08T10:51:38.104Z,7.55
2017-11-08T10:52:38.409Z,7.61
2017-11-08T10:53:38.408Z,7.56
2017-11-08T10:54:38.073Z,7.56
2017-11-08T10:55:38.379Z,7.51
2017-11-08T10:56:38.364Z,7.48
2017-11-08T10:57:38.439Z,7.46
2017-11-08T10:58:38.352Z,7.46
2017-11-08T10:59:38.019Z,7.46
2017-11-08T11:00:38.333Z,7.58
2017-11-08T11:01:38.322Z,7.44
2017-11-08T11:02:37.992Z,7.51
2017-11-08T11:03:37.979Z,7.53
2017-11-08T11:04:38.393Z,7.61
2017-11-08T11:05:37.978Z,7.53
2017-11-08T11:06:38.280Z,7.56
2017-11-08T11:07:38.263Z,7.66
2017-11-08T11:08:37.941Z,7.7
2017-11-08T11:09:38.253Z,7.74
2017-11-08T11:10:37.914Z,7.81
2017-11-08T11:11:37.904Z,7.85
2017-11-08T11:12:37.893Z,7.83
2017-11-08T11:13:37.888Z,7.85
2017-11-08T11:14:37.651Z,7.83
2017-11-08T11:15:37.862Z,7.85
2017-11-08T11:16:37.863Z,7.84
2017-11-08T11:17:37.850Z,7.85
2017-11-08T11:18:37.939Z,7.8
2017-11-08T11:19:38.158Z,7.83
2017-11-08T11:20:37.820Z,7.87
2017-11-08T11:21:38.146Z,7.8
2017-11-08T11:22:37.479Z,7.8
2017-11-08T11:23:38.239Z,7.8
2017-11-08T11:24:38.117Z,7.74
2017-11-08T11:25:38.097Z,7.75
2017-11-08T11:26:38.111Z,7.7
2017-11-08T11:27:37.758Z,7.67
2017-11-08T11:28:37.754Z,7.75
2017-11-08T11:29:38.074Z,7.83
2017-11-08T11:30:38.061Z,7.83
2017-11-08T11:31:37.723Z,7.77
2017-11-08T11:32:38.060Z,7.81
2017-11-08T11:33:38.044Z,7.8
2017-11-08T11:34:38.134Z,7.81
2017-11-08T11:35:37.692Z,7.87
2017-11-08T11:36:38.001Z,7.85
2017-11-08T11:37:37.670Z,7.87
2017-11-08T11:38:37.999Z,7.84
2017-11-08T11:39:37.987Z,7.8
2017-11-08T11:40:37.316Z,7.78
2017-11-08T11:41:37.630Z,7.88
2017-11-08T11:42:37.982Z,7.88
2017-11-08T11:43:37.614Z,7.88
2017-11-08T11:44:37.943Z,7.96
2017-11-08T11:45:37.595Z,7.81
2017-11-08T11:46:37.919Z,7.85
2017-11-08T11:47:37.909Z,7.91
2017-11-08T11:48:37.568Z,7.93
2017-11-08T11:49:37.560Z,7.95
2017-11-08T11:50:37.881Z,7.9
2017-11-08T11:51:37.554Z,7.91
2017-11-08T11:52:37.542Z,7.84
2017-11-08T11:53:37.531Z,7.83
2017-11-08T11:54:37.611Z,7.81
2017-11-08T11:55:37.825Z,7.84
2017-11-08T11:56:37.834Z,7.9
2017-11-08T11:57:37.486Z,7.95
2017-11-08T11:58:37.810Z,7.83
2017-11-08T11:59:37.891Z,7.95
2017-11-08T12:00:37.883Z,8.03
2017-11-08T12:01:37.449Z,8.03
2017-11-08T12:02:37.777Z,7.98
2017-11-08T12:03:37.792Z,7.96
2017-11-08T12:04:37.757Z,8.01
2017-11-08T12:05:37.836Z,7.99
2017-11-08T12:06:37.419Z,8.01
2017-11-08T12:07:37.398Z,7.91
2017-11-08T12:08:37.384Z,7.98
2017-11-08T12:09:37.385Z,8.02
2017-11-08T12:10:37.697Z,7.96
2017-11-08T12:11:37.357Z,8.06
2017-11-08T12:12:37.349Z,7.98
2017-11-08T12:13:37.664Z,8.02
2017-11-08T12:14:37.328Z,7.96
2017-11-08T12:15:36.996Z,8.05
2017-11-08T12:16:37.640Z,8.01
2017-11-08T12:17:37.627Z,8.01
2017-11-08T12:18:37.295Z,8.06
2017-11-08T12:19:36.959Z,8.02
2017-11-08T12:20:37.285Z,8.08
2017-11-08T12:21:37.041Z,8.09
2017-11-08T12:22:37.257Z,8.06
2017-11-08T12:23:37.351Z,8.08
2017-11-08T12:24:36.912Z,8.14
2017-11-08T12:25:37.229Z,8.17
2017-11-08T12:26:37.220Z,8.24
2017-11-08T12:27:37.537Z,8.14
2017-11-08T12:28:37.197Z,8.09
2017-11-08T12:29:37.194Z,8.14
2017-11-08T12:30:36.856Z,8.14
2017-11-08T12:31:37.203Z,8.13
2017-11-08T12:32:37.498Z,8.17
2017-11-08T12:33:37.157Z,8.2
2017-11-08T12:34:37.472Z,8.14
2017-11-08T12:35:37.468Z,8.16
2017-11-08T12:36:37.128Z,8.11
2017-11-08T12:37:37.122Z,8.17
2017-11-08T12:38:37.107Z,8.18
2017-11-08T12:39:37.432Z,8.18
2017-11-08T12:40:37.410Z,8.18
2017-11-08T12:41:37.083Z,8.17
2017-11-08T12:42:37.398Z,8.24
2017-11-08T12:43:37.078Z,8.21
2017-11-08T12:44:37.376Z,8.27
2017-11-08T12:45:37.380Z,8.2
2017-11-08T12:46:37.034Z,8.26
2017-11-08T12:47:37.033Z,8.21
2017-11-08T12:48:37.340Z,8.2
2017-11-08T12:49:37.332Z,8.26
2017-11-08T12:50:37.329Z,8.23
2017-11-08T12:51:36.989Z,8.26
2017-11-08T12:52:36.979Z,8.21
2017-11-08T12:53:37.309Z,8.17
2017-11-08T12:54:36.975Z,8.26
2017-11-08T12:55:37.292Z,8.18
2017-11-08T12:56:36.617Z,8.28
2017-11-08T12:57:37.263Z,8.28
2017-11-08T12:58:37.034Z,8.31
2017-11-08T12:59:36.929Z,8.31
2017-11-08T13:00:37.228Z,8.34
2017-11-08T13:01:36.908Z,8.31
2017-11-08T13:02:36.887Z,8.34
2017-11-08T13:03:37.234Z,8.39
2017-11-08T13:04:37.193Z,8.39
2017-11-08T13:05:36.864Z,8.39
2017-11-08T13:06:37.175Z,8.41
2017-11-08T13:07:37.168Z,8.32
2017-11-08T13:08:36.840Z,8.35
2017-11-08T13:09:37.159Z,8.27
2017-11-08T13:10:36.488Z,8.36
2017-11-08T13:11:36.803Z,8.32
2017-11-08T13:12:36.801Z,8.32
2017-11-08T13:13:36.506Z,8.38
2017-11-08T13:14:36.781Z,8.32
2017-11-08T13:15:37.093Z,8.32
2017-11-08T13:16:36.762Z,8.28
2017-11-08T13:17:36.752Z,8.31
2017-11-08T13:18:36.742Z,8.2
2017-11-08T13:19:37.055Z,8.34
2017-11-08T13:20:36.723Z,8.2
2017-11-08T13:21:37.039Z,8.18
2017-11-08T13:22:36.726Z,8.26